X  Zavřít Údaje o počasí v letectví METAR      LKTB Brno-Tuřany Airport
Teplota
23°C Teplota
16°C Rosný bod
65% Vlhkost vzduchu



Vítr
11 KM/H
7 MPS
3 M/S
6 KTS



10°
N
Aktuální podmínky

Částečně oblačno Částečně oblačno
Tlak 1013.88 (hPa) - 29.94 (inHg)
Viditelnost 6 (Míle) - 9.7 (km)
Letiště
VKód letiště LKTB

Oblast: Brno-Tuřany Airport
Vzdálenost: 60 (km)

Metar:
LKTB 140800Z 01006KT 330V040 9999 FEW026 23/16 Q1014 NOSIG

Čas: 14-07-2024 10:00 CEST